Saturday, September 22, 2018, 10:50 PM EDT
Back to Local

KAFN, Jaffrey Muni-silver Ranch

Location: Jaffrey, NH, United States Lat: 42.8
Local Time: 10:50 PM EDT ( 2:50 GMT) Lon: -72
Time Zone: US/Eastern Elev: 1040 ft

Show me the last for .
Show Decoded

2018-09-22 21:52 METAR KAFN 230152Z AUTO 00000KT 10SM CLR 08/08 A3024 RMK AO2 SLP248 T00830083 =
2018-09-22 20:52 METAR KAFN 230052Z AUTO 00000KT 10SM CLR 09/09 A3024 RMK AO2 SLP247 T00940089 =
2018-09-22 19:52 METAR KAFN 222352Z AUTO 00000KT 10SM CLR 11/09 A3023 RMK AO2 SLP241 T01060089
                 10183 20106 51019 =
2018-09-22 18:52 METAR KAFN 222252Z AUTO 00000KT 10SM CLR 12/08 A3021 RMK AO2 SLP237 T01170083 =
2018-09-22 17:52 METAR KAFN 222152Z AUTO VRB04KT 10SM CLR 14/07 A3018 RMK AO2 SLP224 T01440067 =
2018-09-22 16:52 METAR KAFN 222052Z AUTO VRB04KT 10SM CLR 16/07 A3017 RMK AO2 SLP219 T01610067
                 53007 =
2018-09-22 15:52 METAR KAFN 221952Z AUTO 31006KT 10SM CLR 18/07 A3015 RMK AO2 SLP212 T01780067 =
2018-09-22 14:52 METAR KAFN 221852Z AUTO 30008KT 10SM CLR 17/07 A3015 RMK AO2 SLP213 T01670067 =
2018-09-22 13:52 METAR KAFN 221752Z AUTO 33007G15KT 280V360 10SM CLR 18/08 A3015 RMK AO2 SLP211
                 T01780078 10183 20161 51013 =
2018-09-22 12:52 METAR KAFN 221652Z AUTO VRB05KT 10SM CLR 18/09 A3014 RMK AO2 SLP208 T01830094 =
2018-09-22 11:52 METAR KAFN 221552Z AUTO 33008G16KT 10SM CLR 18/08 A3013 RMK AO2 SLP206 T01780083
                 =
2018-09-22 10:52 METAR KAFN 221452Z AUTO 32007G15KT 240V020 10SM CLR 17/09 A3011 RMK AO2 SLP198
                 T01720094 51030 =
2018-09-22 09:52 METAR KAFN 221352Z AUTO 33008G19KT 260V040 10SM CLR 16/10 A3009 RMK AO2 SLP191
                 T01610100 =
2018-09-22 08:52 METAR KAFN 221252Z AUTO VRB05KT 10SM FEW044 16/09 A3006 RMK AO2 SLP181 T01610094
                 =
2018-09-22 07:52 METAR KAFN 221152Z AUTO VRB05G18KT 10SM CLR 17/11 A3002 RMK AO2 SLP168 60001
                 70001 T01720106 10194 20172 53045 =
2018-09-22 06:52 METAR KAFN 221052Z AUTO VRB06G17KT 10SM CLR 17/11 A2997 RMK AO2 PRESRR SLP152
                 T01720111 =
2018-09-22 05:52 METAR KAFN 220952Z AUTO VRB04KT 10SM FEW029 19/17 A2991 RMK AO2 SLP132 T01890167
                 =
2018-09-22 05:19 METAR KAFN 220919Z AUTO 23007KT 200V260 10SM FEW019 SCT024 19/18 A2989 RMK AO2
                 T01940178 =
2018-09-22 05:00 METAR KAFN 220900Z AUTO 22003KT 10SM FEW009 SCT013 BKN019 19/19 A2988 RMK AO2
                 T01940189 =
2018-09-22 04:52 METAR KAFN 220852Z AUTO 23008KT 200V280 10SM BKN008 BKN015 BKN022 19/19 A2988
                 RMK AO2 CIG 007V011 SLP119 60001 T01940189 55002 =
2018-09-22 03:52 METAR KAFN 220752Z AUTO 20008G15KT 10SM BKN008 BKN012 OVC026 19/19 A2987 RMK AO2
                 RAE0654 CIG 005V010 SLP116 P0000 T01940189 =
2018-09-22 02:52 METAR KAFN 220652Z AUTO 21010G20KT 10SM -RA OVC007 19/19 A2986 RMK AO2 CIG
                 005V011 SLP113 P0001 T01940189 =
2018-09-22 01:52 METAR KAFN 220552Z AUTO 23007G17KT 10SM -RA OVC007 19/19 A2989 RMK AO2 RAB32
                 SLP122 P0000 60000 T01890189 10189 20172 55014 =
2018-09-22 00:52 METAR KAFN 220452Z AUTO 20014G27KT 5SM BR OVC006 19/19 A2989 RMK AO2 PK WND
                 18027/0451 SLP122 T01890189 401890139 =
2018-09-21 23:52 METAR KAFN 220352Z AUTO 21011G27KT 8SM OVC008 19/18 A2990 RMK AO2 PK WND
                 20027/0317 CIG 006V011 SLP129 T01890183 =
2018-09-21 22:52 METAR KAFN 220252Z AUTO 21011G22KT 4SM BR OVC006 18/18 A2993 RMK AO2 CIG 005V009
                 SLP138 T01830183 56014 =

Support USWX by starting your Amazon purchase here.